sensor_id;sensor_type;location;lat;lon;timestamp;P1;durP1;ratioP1;P2;durP2;ratioP2
6787;SDS011;3431;47.966;10.268;2022-11-25T00:00:09;1.13;;;1.10;;
6787;SDS011;3431;47.966;10.268;2022-11-25T00:00:34;1.67;;;1.25;;
6787;SDS011;3431;47.966;10.268;2022-11-25T00:01:02;1.55;;;1.40;;
6787;SDS011;3431;47.966;10.268;2022-11-25T00:01:25;1.38;;;1.30;;
6787;SDS011;3431;47.966;10.268;2022-11-25T00:01:49;1.05;;;1.05;;
6787;SDS011;3431;47.966;10.268;2022-11-25T00:02:11;1.23;;;1.13;;
6787;SDS011;3431;47.966;10.268;2022-11-25T00:02:32;1.20;;;1.13;;
6787;SDS011;3431;47.966;10.268;2022-11-25T00:02:54;1.30;;;1.20;;
6787;SDS011;3431;47.966;10.268;2022-11-25T00:03:16;1.30;;;1.20;;
6787;SDS011;3431;47.966;10.268;2022-11-25T00:03:38;1.40;;;1.30;;
6787;SDS011;3431;47.966;10.268;2022-11-25T00:04:01;1.30;;;1.20;;
6787;SDS011;3431;47.966;10.268;2022-11-25T00:04:22;1.35;;;1.30;;
6787;SDS011;3431;47.966;10.268;2022-11-25T00:04:45;1.55;;;1.45;;
6787;SDS011;3431;47.966;10.268;2022-11-25T00:05:06;1.10;;;1.10;;
6787;SDS011;3431;47.966;10.268;2022-11-25T00:05:28;1.40;;;1.30;;
6787;SDS011;3431;47.966;10.268;2022-11-25T00:05:50;1.42;;;1.33;;
6787;SDS011;3431;47.966;10.268;2022-11-25T00:06:12;3.25;;;1.70;;
6787;SDS011;3431;47.966;10.268;2022-11-25T00:06:36;1.55;;;1.45;;
6787;SDS011;3431;47.966;10.268;2022-11-25T00:06:57;1.20;;;1.20;;
6787;SDS011;3431;47.966;10.268;2022-11-25T00:07:19;2.00;;;1.35;;
6787;SDS011;3431;47.966;10.268;2022-11-25T00:07:41;1.65;;;1.40;;
6787;SDS011;3431;47.966;10.268;2022-11-25T00:08:02;2.33;;;1.40;;
6787;SDS011;3431;47.966;10.268;2022-11-25T00:08:25;2.42;;;1.58;;
6787;SDS011;3431;47.966;10.268;2022-11-25T00:08:48;1.30;;;1.20;;
6787;SDS011;3431;47.966;10.268;2022-11-25T00:09:11;1.15;;;1.15;;
6787;SDS011;3431;47.966;10.268;2022-11-25T00:09:32;1.30;;;1.20;;
6787;SDS011;3431;47.966;10.268;2022-11-25T00:09:55;1.30;;;1.20;;
6787;SDS011;3431;47.966;10.268;2022-11-25T00:10:16;1.48;;;1.38;;
6787;SDS011;3431;47.966;10.268;2022-11-25T00:10:38;1.27;;;1.25;;
6787;SDS011;3431;47.966;10.268;2022-11-25T00:11:00;1.30;;;1.20;;
6787;SDS011;3431;47.966;10.268;2022-11-25T00:11:22;1.10;;;1.10;;
6787;SDS011;3431;47.966;10.268;2022-11-25T00:11:44;1.70;;;1.20;;
6787;SDS011;3431;47.966;10.268;2022-11-25T00:12:06;1.63;;;1.17;;
6787;SDS011;3431;47.966;10.268;2022-11-25T00:12:28;0.90;;;0.90;;
6787;SDS011;3431;47.966;10.268;2022-11-25T00:12:50;1.10;;;1.08;;
6787;SDS011;3431;47.966;10.268;2022-11-25T00:13:12;1.23;;;1.13;;
6787;SDS011;3431;47.966;10.268;2022-11-25T00:13:34;1.48;;;1.38;;
6787;SDS011;3431;47.966;10.268;2022-11-25T00:13:56;1.35;;;1.25;;
6787;SDS011;3431;47.966;10.268;2022-11-25T00:14:19;1.30;;;1.20;;
6787;SDS011;3431;47.966;10.268;2022-11-25T00:14:40;1.38;;;1.10;;
6787;SDS011;3431;47.966;10.268;2022-11-25T00:15:02;1.38;;;1.27;;
6787;SDS011;3431;47.966;10.268;2022-11-25T00:15:24;1.05;;;1.05;;
6787;SDS011;3431;47.966;10.268;2022-11-25T00:15:47;1.40;;;1.30;;
6787;SDS011;3431;47.966;10.268;2022-11-25T00:16:09;1.20;;;1.20;;
6787;SDS011;3431;47.966;10.268;2022-11-25T00:16:31;1.20;;;1.20;;
6787;SDS011;3431;47.966;10.268;2022-11-25T00:16:54;1.20;;;1.10;;
6787;SDS011;3431;47.966;10.268;2022-11-25T00:17:15;1.20;;;1.10;;
6787;SDS011;3431;47.966;10.268;2022-11-25T00:17:37;1.15;;;1.10;;
6787;SDS011;3431;47.966;10.268;2022-11-25T00:17:58;1.23;;;1.13;;
6787;SDS011;3431;47.966;10.268;2022-11-25T00:18:20;1.30;;;1.15;;
6787;SDS011;3431;47.966;10.268;2022-11-25T00:18:42;1.60;;;1.13;;
6787;SDS011;3431;47.966;10.268;2022-11-25T00:19:04;1.20;;;1.10;;
6787;SDS011;3431;47.966;10.268;2022-11-25T00:19:26;1.20;;;1.10;;
6787;SDS011;3431;47.966;10.268;2022-11-25T00:19:47;1.38;;;1.27;;
6787;SDS011;3431;47.966;10.268;2022-11-25T00:20:10;1.10;;;1.10;;
6787;SDS011;3431;47.966;10.268;2022-11-25T00:20:32;1.00;;;1.00;;
6787;SDS011;3431;47.966;10.268;2022-11-25T00:20:53;1.20;;;1.10;;
6787;SDS011;3431;47.966;10.268;2022-11-25T00:21:16;0.90;;;0.90;;
6787;SDS011;3431;47.966;10.268;2022-11-25T00:21:39;1.25;;;1.10;;
6787;SDS011;3431;47.966;10.268;2022-11-25T00:22:01;1.20;;;1.13;;
6787;SDS011;3431;47.966;10.268;2022-11-25T00:22:22;1.15;;;1.08;;
6787;SDS011;3431;47.966;10.268;2022-11-25T00:22:44;1.00;;;1.00;;
6787;SDS011;3431;47.966;10.268;2022-11-25T00:23:06;1.20;;;1.08;;
6787;SDS011;3431;47.966;10.268;2022-11-25T00:23:28;1.38;;;1.10;;
6787;SDS011;3431;47.966;10.268;2022-11-25T00:23:50;1.00;;;1.00;;
6787;SDS011;3431;47.966;10.268;2022-11-25T00:24:13;1.97;;;1.30;;
6787;SDS011;3431;47.966;10.268;2022-11-25T00:24:37;1.60;;;1.50;;
6787;SDS011;3431;47.966;10.268;2022-11-25T00:24:58;1.40;;;1.30;;
6787;SDS011;3431;47.966;10.268;2022-11-25T00:25:20;1.30;;;1.20;;
6787;SDS011;3431;47.966;10.268;2022-11-25T00:25:41;1.08;;;1.00;;
6787;SDS011;3431;47.966;10.268;2022-11-25T00:26:06;1.10;;;1.00;;
6787;SDS011;3431;47.966;10.268;2022-11-25T00:26:30;1.00;;;1.00;;
6787;SDS011;3431;47.966;10.268;2022-11-25T00:26:53;1.00;;;1.00;;
6787;SDS011;3431;47.966;10.268;2022-11-25T00:27:14;1.00;;;1.00;;
6787;SDS011;3431;47.966;10.268;2022-11-25T00:27:37;1.13;;;1.13;;
6787;SDS011;3431;47.966;10.268;2022-11-25T00:27:58;1.20;;;1.10;;
6787;SDS011;3431;47.966;10.268;2022-11-25T00:28:21;1.00;;;1.00;;
6787;SDS011;3431;47.966;10.268;2022-11-25T00:28:44;1.20;;;1.20;;
6787;SDS011;3431;47.966;10.268;2022-11-25T00:29:07;1.38;;;1.27;;
6787;SDS011;3431;47.966;10.268;2022-11-25T00:29:31;1.10;;;1.10;;
6787;SDS011;3431;47.966;10.268;2022-11-25T00:29:53;1.10;;;1.10;;
6787;SDS011;3431;47.966;10.268;2022-11-25T00:30:15;1.08;;;1.08;;
6787;SDS011;3431;47.966;10.268;2022-11-25T00:30:36;1.27;;;1.17;;
6787;SDS011;3431;47.966;10.268;2022-11-25T00:31:03;1.10;;;1.00;;
6787;SDS011;3431;47.966;10.268;2022-11-25T00:31:25;0.95;;;0.95;;
6787;SDS011;3431;47.966;10.268;2022-11-25T00:31:48;1.08;;;1.08;;
6787;SDS011;3431;47.966;10.268;2022-11-25T00:32:11;1.08;;;1.08;;
6787;SDS011;3431;47.966;10.268;2022-11-25T00:32:32;1.15;;;1.05;;
6787;SDS011;3431;47.966;10.268;2022-11-25T00:32:54;1.40;;;1.30;;
6787;SDS011;3431;47.966;10.268;2022-11-25T00:33:15;1.40;;;1.33;;
6787;SDS011;3431;47.966;10.268;2022-11-25T00:33:38;1.70;;;1.27;;
6787;SDS011;3431;47.966;10.268;2022-11-25T00:34:01;1.70;;;1.20;;
6787;SDS011;3431;47.966;10.268;2022-11-25T00:34:22;1.27;;;1.25;;
6787;SDS011;3431;47.966;10.268;2022-11-25T00:34:44;1.20;;;1.20;;
6787;SDS011;3431;47.966;10.268;2022-11-25T00:35:07;1.45;;;1.35;;
6787;SDS011;3431;47.966;10.268;2022-11-25T00:35:29;1.25;;;1.17;;
6787;SDS011;3431;47.966;10.268;2022-11-25T00:35:50;1.10;;;1.10;;
6787;SDS011;3431;47.966;10.268;2022-11-25T00:36:13;1.15;;;1.15;;
6787;SDS011;3431;47.966;10.268;2022-11-25T00:36:36;1.15;;;1.13;;
6787;SDS011;3431;47.966;10.268;2022-11-25T00:36:59;1.13;;;1.00;;
6787;SDS011;3431;47.966;10.268;2022-11-25T00:37:21;1.20;;;1.10;;
6787;SDS011;3431;47.966;10.268;2022-11-25T00:37:42;0.98;;;0.98;;
6787;SDS011;3431;47.966;10.268;2022-11-25T00:38:04;1.05;;;1.05;;
6787;SDS011;3431;47.966;10.268;2022-11-25T00:38:26;1.30;;;1.20;;
6787;SDS011;3431;47.966;10.268;2022-11-25T00:38:51;1.38;;;1.27;;
6787;SDS011;3431;47.966;10.268;2022-11-25T00:39:14;1.30;;;1.20;;
6787;SDS011;3431;47.966;10.268;2022-11-25T00:39:36;1.75;;;1.38;;
6787;SDS011;3431;47.966;10.268;2022-11-25T00:39:59;1.65;;;1.40;;
6787;SDS011;3431;47.966;10.268;2022-11-25T00:40:20;1.10;;;1.10;;
6787;SDS011;3431;47.966;10.268;2022-11-25T00:40:42;1.10;;;1.10;;
6787;SDS011;3431;47.966;10.268;2022-11-25T00:41:23;1.13;;;1.13;;
6787;SDS011;3431;47.966;10.268;2022-11-25T00:42:04;1.02;;;1.02;;
6787;SDS011;3431;47.966;10.268;2022-11-25T00:42:44;1.30;;;1.10;;
6787;SDS011;3431;47.966;10.268;2022-11-25T00:43:25;1.50;;;1.20;;
6787;SDS011;3431;47.966;10.268;2022-11-25T00:44:06;1.42;;;1.35;;
6787;SDS011;3431;47.966;10.268;2022-11-25T00:44:47;1.65;;;1.20;;
6787;SDS011;3431;47.966;10.268;2022-11-25T00:45:10;1.88;;;1.15;;
6787;SDS011;3431;47.966;10.268;2022-11-25T00:45:31;1.95;;;1.08;;
6787;SDS011;3431;47.966;10.268;2022-11-25T00:45:53;2.05;;;1.20;;
6787;SDS011;3431;47.966;10.268;2022-11-25T00:46:14;1.67;;;1.25;;
6787;SDS011;3431;47.966;10.268;2022-11-25T00:46:36;1.30;;;1.20;;
6787;SDS011;3431;47.966;10.268;2022-11-25T00:46:57;1.08;;;1.08;;
6787;SDS011;3431;47.966;10.268;2022-11-25T00:47:21;1.10;;;1.10;;
6787;SDS011;3431;47.966;10.268;2022-11-25T00:47:42;1.15;;;1.15;;
6787;SDS011;3431;47.966;10.268;2022-11-25T00:48:04;1.10;;;1.00;;
6787;SDS011;3431;47.966;10.268;2022-11-25T00:48:25;1.00;;;1.00;;
6787;SDS011;3431;47.966;10.268;2022-11-25T00:48:48;1.00;;;1.00;;
6787;SDS011;3431;47.966;10.268;2022-11-25T00:49:09;1.10;;;1.10;;
6787;SDS011;3431;47.966;10.268;2022-11-25T00:49:31;1.20;;;1.10;;
6787;SDS011;3431;47.966;10.268;2022-11-25T00:49:53;1.00;;;1.00;;
6787;SDS011;3431;47.966;10.268;2022-11-25T00:50:16;1.10;;;1.10;;
6787;SDS011;3431;47.966;10.268;2022-11-25T00:50:37;1.20;;;1.20;;
6787;SDS011;3431;47.966;10.268;2022-11-25T00:50:59;1.05;;;1.05;;
6787;SDS011;3431;47.966;10.268;2022-11-25T00:51:20;1.20;;;1.10;;
6787;SDS011;3431;47.966;10.268;2022-11-25T00:51:42;0.98;;;0.98;;
6787;SDS011;3431;47.966;10.268;2022-11-25T00:52:04;0.98;;;0.98;;
6787;SDS011;3431;47.966;10.268;2022-11-25T00:52:26;1.40;;;1.10;;
6787;SDS011;3431;47.966;10.268;2022-11-25T00:52:48;1.10;;;1.10;;
6787;SDS011;3431;47.966;10.268;2022-11-25T00:53:11;1.30;;;1.20;;
6787;SDS011;3431;47.966;10.268;2022-11-25T00:53:32;1.30;;;1.20;;
6787;SDS011;3431;47.966;10.268;2022-11-25T00:53:54;1.30;;;1.20;;
6787;SDS011;3431;47.966;10.268;2022-11-25T00:54:15;1.40;;;1.30;;
6787;SDS011;3431;47.966;10.268;2022-11-25T00:54:37;1.00;;;1.00;;
6787;SDS011;3431;47.966;10.268;2022-11-25T00:54:59;0.93;;;0.93;;
6787;SDS011;3431;47.966;10.268;2022-11-25T00:55:21;1.00;;;0.90;;
6787;SDS011;3431;47.966;10.268;2022-11-25T00:55:42;1.00;;;0.93;;
6787;SDS011;3431;47.966;10.268;2022-11-25T00:56:23;1.08;;;1.08;;
6787;SDS011;3431;47.966;10.268;2022-11-25T00:56:44;1.10;;;1.00;;
6787;SDS011;3431;47.966;10.268;2022-11-25T00:57:07;1.40;;;1.30;;
6787;SDS011;3431;47.966;10.268;2022-11-25T00:57:29;1.33;;;1.23;;
6787;SDS011;3431;47.966;10.268;2022-11-25T00:57:50;1.13;;;1.10;;
6787;SDS011;3431;47.966;10.268;2022-11-25T00:58:12;0.90;;;0.90;;
6787;SDS011;3431;47.966;10.268;2022-11-25T00:58:36;1.00;;;1.00;;
6787;SDS011;3431;47.966;10.268;2022-11-25T00:58:57;1.25;;;1.15;;
6787;SDS011;3431;47.966;10.268;2022-11-25T00:59:19;1.08;;;1.05;;
6787;SDS011;3431;47.966;10.268;2022-11-25T00:59:40;1.05;;;1.00;;
6787;SDS011;3431;47.966;10.268;2022-11-25T01:00:03;1.17;;;1.10;;
6787;SDS011;3431;47.966;10.268;2022-11-25T01:00:26;1.10;;;1.10;;
6787;SDS011;3431;47.966;10.268;2022-11-25T01:00:47;0.90;;;0.90;;
6787;SDS011;3431;47.966;10.268;2022-11-25T01:01:09;0.90;;;0.90;;
6787;SDS011;3431;47.966;10.268;2022-11-25T01:01:31;1.00;;;1.00;;
6787;SDS011;3431;47.966;10.268;2022-11-25T01:01:56;1.30;;;1.20;;
6787;SDS011;3431;47.966;10.268;2022-11-25T01:02:17;0.95;;;0.95;;
6787;SDS011;3431;47.966;10.268;2022-11-25T01:02:39;0.80;;;0.80;;
6787;SDS011;3431;47.966;10.268;2022-11-25T01:03:02;1.10;;;1.10;;
6787;SDS011;3431;47.966;10.268;2022-11-25T01:03:26;1.00;;;1.00;;
6787;SDS011;3431;47.966;10.268;2022-11-25T01:03:48;1.08;;;1.02;;
6787;SDS011;3431;47.966;10.268;2022-11-25T01:04:10;1.13;;;1.08;;
6787;SDS011;3431;47.966;10.268;2022-11-25T01:04:32;1.15;;;1.00;;
6787;SDS011;3431;47.966;10.268;2022-11-25T01:04:55;1.30;;;1.10;;
6787;SDS011;3431;47.966;10.268;2022-11-25T01:05:16;1.35;;;1.25;;
6787;SDS011;3431;47.966;10.268;2022-11-25T01:05:38;1.20;;;1.20;;
6787;SDS011;3431;47.966;10.268;2022-11-25T01:06:00;1.10;;;1.00;;
6787;SDS011;3431;47.966;10.268;2022-11-25T01:06:22;1.05;;;1.05;;
6787;SDS011;3431;47.966;10.268;2022-11-25T01:06:44;1.00;;;1.00;;
6787;SDS011;3431;47.966;10.268;2022-11-25T01:07:09;1.40;;;1.30;;
6787;SDS011;3431;47.966;10.268;2022-11-25T01:07:30;0.93;;;0.93;;
6787;SDS011;3431;47.966;10.268;2022-11-25T01:07:53;0.80;;;0.80;;
6787;SDS011;3431;47.966;10.268;2022-11-25T01:08:14;0.98;;;0.98;;
6787;SDS011;3431;47.966;10.268;2022-11-25T01:08:36;1.20;;;1.10;;
6787;SDS011;3431;47.966;10.268;2022-11-25T01:08:58;0.90;;;0.90;;
6787;SDS011;3431;47.966;10.268;2022-11-25T01:09:20;0.80;;;0.80;;
6787;SDS011;3431;47.966;10.268;2022-11-25T01:09:43;0.98;;;0.98;;
6787;SDS011;3431;47.966;10.268;2022-11-25T01:10:05;0.93;;;0.93;;
6787;SDS011;3431;47.966;10.268;2022-11-25T01:10:27;1.13;;;0.90;;
6787;SDS011;3431;47.966;10.268;2022-11-25T01:10:53;1.13;;;1.10;;
6787;SDS011;3431;47.966;10.268;2022-11-25T01:11:19;0.95;;;0.95;;
6787;SDS011;3431;47.966;10.268;2022-11-25T01:11:42;0.95;;;0.95;;
6787;SDS011;3431;47.966;10.268;2022-11-25T01:12:03;0.90;;;0.90;;
6787;SDS011;3431;47.966;10.268;2022-11-25T01:12:26;1.40;;;1.30;;
6787;SDS011;3431;47.966;10.268;2022-11-25T01:12:48;1.02;;;1.02;;
6787;SDS011;3431;47.966;10.268;2022-11-25T01:13:10;0.82;;;0.82;;
6787;SDS011;3431;47.966;10.268;2022-11-25T01:13:32;1.00;;;1.00;;
6787;SDS011;3431;47.966;10.268;2022-11-25T01:13:55;0.95;;;0.95;;
6787;SDS011;3431;47.966;10.268;2022-11-25T01:14:19;1.13;;;0.93;;
6787;SDS011;3431;47.966;10.268;2022-11-25T01:14:41;1.20;;;1.08;;
6787;SDS011;3431;47.966;10.268;2022-11-25T01:15:03;1.10;;;1.00;;
6787;SDS011;3431;47.966;10.268;2022-11-25T01:15:28;1.05;;;0.98;;
6787;SDS011;3431;47.966;10.268;2022-11-25T01:15:51;0.95;;;0.95;;
6787;SDS011;3431;47.966;10.268;2022-11-25T01:16:13;1.20;;;1.10;;
6787;SDS011;3431;47.966;10.268;2022-11-25T01:16:35;1.13;;;1.13;;
6787;SDS011;3431;47.966;10.268;2022-11-25T01:16:57;1.08;;;1.08;;
6787;SDS011;3431;47.966;10.268;2022-11-25T01:17:20;1.38;;;1.10;;
6787;SDS011;3431;47.966;10.268;2022-11-25T01:17:41;1.83;;;1.38;;
6787;SDS011;3431;47.966;10.268;2022-11-25T01:18:03;1.08;;;1.00;;
6787;SDS011;3431;47.966;10.268;2022-11-25T01:18:26;1.20;;;1.10;;
6787;SDS011;3431;47.966;10.268;2022-11-25T01:18:48;1.20;;;1.10;;
6787;SDS011;3431;47.966;10.268;2022-11-25T01:19:13;1.58;;;0.95;;
6787;SDS011;3431;47.966;10.268;2022-11-25T01:19:35;2.13;;;1.08;;
6787;SDS011;3431;47.966;10.268;2022-11-25T01:19:59;1.25;;;1.00;;
6787;SDS011;3431;47.966;10.268;2022-11-25T01:20:23;1.10;;;1.00;;
6787;SDS011;3431;47.966;10.268;2022-11-25T01:20:45;1.00;;;1.00;;
6787;SDS011;3431;47.966;10.268;2022-11-25T01:21:07;1.10;;;1.10;;
6787;SDS011;3431;47.966;10.268;2022-11-25T01:21:30;1.30;;;1.30;;
6787;SDS011;3431;47.966;10.268;2022-11-25T01:21:55;1.30;;;1.20;;
6787;SDS011;3431;47.966;10.268;2022-11-25T01:22:16;1.15;;;1.10;;
6787;SDS011;3431;47.966;10.268;2022-11-25T01:22:38;0.90;;;0.90;;
6787;SDS011;3431;47.966;10.268;2022-11-25T01:22:59;1.10;;;1.00;;
6787;SDS011;3431;47.966;10.268;2022-11-25T01:23:22;1.10;;;1.00;;
6787;SDS011;3431;47.966;10.268;2022-11-25T01:23:47;0.90;;;0.90;;
6787;SDS011;3431;47.966;10.268;2022-11-25T01:24:10;0.90;;;0.90;;
6787;SDS011;3431;47.966;10.268;2022-11-25T01:24:33;1.20;;;1.20;;
6787;SDS011;3431;47.966;10.268;2022-11-25T01:24:56;1.08;;;1.08;;
6787;SDS011;3431;47.966;10.268;2022-11-25T01:25:17;1.00;;;1.00;;
6787;SDS011;3431;47.966;10.268;2022-11-25T01:25:39;1.00;;;1.00;;
6787;SDS011;3431;47.966;10.268;2022-11-25T01:26:01;1.30;;;1.20;;
6787;SDS011;3431;47.966;10.268;2022-11-25T01:26:23;1.35;;;1.30;;
6787;SDS011;3431;47.966;10.268;2022-11-25T01:26:46;1.27;;;1.17;;
6787;SDS011;3431;47.966;10.268;2022-11-25T01:27:08;1.08;;;1.08;;
6787;SDS011;3431;47.966;10.268;2022-11-25T01:27:30;1.00;;;1.00;;
6787;SDS011;3431;47.966;10.268;2022-11-25T01:27:51;1.20;;;1.00;;
6787;SDS011;3431;47.966;10.268;2022-11-25T01:28:13;1.10;;;1.05;;
6787;SDS011;3431;47.966;10.268;2022-11-25T01:28:35;0.80;;;0.80;;
6787;SDS011;3431;47.966;10.268;2022-11-25T01:28:59;0.90;;;0.90;;
6787;SDS011;3431;47.966;10.268;2022-11-25T01:29:22;1.05;;;0.80;;
6787;SDS011;3431;47.966;10.268;2022-11-25T01:29:47;0.80;;;0.80;;
6787;SDS011;3431;47.966;10.268;2022-11-25T01:30:09;1.00;;;1.00;;
6787;SDS011;3431;47.966;10.268;2022-11-25T01:30:31;1.17;;;1.10;;
6787;SDS011;3431;47.966;10.268;2022-11-25T01:30:57;1.00;;;1.00;;
6787;SDS011;3431;47.966;10.268;2022-11-25T01:31:21;0.80;;;0.80;;
6787;SDS011;3431;47.966;10.268;2022-11-25T01:31:45;1.08;;;1.00;;
6787;SDS011;3431;47.966;10.268;2022-11-25T01:32:07;1.20;;;1.10;;
6787;SDS011;3431;47.966;10.268;2022-11-25T01:32:29;1.35;;;1.00;;
6787;SDS011;3431;47.966;10.268;2022-11-25T01:32:51;0.90;;;0.90;;
6787;SDS011;3431;47.966;10.268;2022-11-25T01:33:13;0.98;;;0.98;;
6787;SDS011;3431;47.966;10.268;2022-11-25T01:33:35;1.10;;;1.00;;
6787;SDS011;3431;47.966;10.268;2022-11-25T01:33:58;1.33;;;1.10;;
6787;SDS011;3431;47.966;10.268;2022-11-25T01:34:22;0.70;;;0.70;;
6787;SDS011;3431;47.966;10.268;2022-11-25T01:34:45;1.50;;;0.90;;
6787;SDS011;3431;47.966;10.268;2022-11-25T01:35:07;0.80;;;0.80;;
6787;SDS011;3431;47.966;10.268;2022-11-25T01:35:29;1.10;;;1.00;;
6787;SDS011;3431;47.966;10.268;2022-11-25T01:35:51;1.05;;;1.00;;
6787;SDS011;3431;47.966;10.268;2022-11-25T01:36:13;1.80;;;0.95;;
6787;SDS011;3431;47.966;10.268;2022-11-25T01:36:37;1.15;;;0.90;;
6787;SDS011;3431;47.966;10.268;2022-11-25T01:37:00;1.73;;;0.93;;
6787;SDS011;3431;47.966;10.268;2022-11-25T01:37:21;0.88;;;0.88;;
6787;SDS011;3431;47.966;10.268;2022-11-25T01:37:43;1.10;;;0.90;;
6787;SDS011;3431;47.966;10.268;2022-11-25T01:38:04;1.58;;;0.90;;
6787;SDS011;3431;47.966;10.268;2022-11-25T01:38:27;1.10;;;1.10;;
6787;SDS011;3431;47.966;10.268;2022-11-25T01:38:49;0.90;;;0.90;;
6787;SDS011;3431;47.966;10.268;2022-11-25T01:39:15;0.90;;;0.90;;
6787;SDS011;3431;47.966;10.268;2022-11-25T01:39:37;0.85;;;0.85;;
6787;SDS011;3431;47.966;10.268;2022-11-25T01:40:00;1.00;;;0.90;;
6787;SDS011;3431;47.966;10.268;2022-11-25T01:40:22;0.85;;;0.85;;
6787;SDS011;3431;47.966;10.268;2022-11-25T01:40:43;0.85;;;0.85;;
6787;SDS011;3431;47.966;10.268;2022-11-25T01:41:05;0.90;;;0.90;;
6787;SDS011;3431;47.966;10.268;2022-11-25T01:41:29;0.90;;;0.90;;
6787;SDS011;3431;47.966;10.268;2022-11-25T01:41:53;0.88;;;0.88;;
6787;SDS011;3431;47.966;10.268;2022-11-25T01:42:16;1.30;;;1.20;;
6787;SDS011;3431;47.966;10.268;2022-11-25T01:42:40;1.40;;;1.30;;
6787;SDS011;3431;47.966;10.268;2022-11-25T01:43:02;0.95;;;0.95;;
6787;SDS011;3431;47.966;10.268;2022-11-25T01:43:27;1.08;;;1.08;;
6787;SDS011;3431;47.966;10.268;2022-11-25T01:44:09;0.90;;;0.90;;
6787;SDS011;3431;47.966;10.268;2022-11-25T01:44:33;1.50;;;1.27;;
6787;SDS011;3431;47.966;10.268;2022-11-25T01:45:09;1.48;;;1.38;;
6787;SDS011;3431;47.966;10.268;2022-11-25T01:45:53;1.55;;;1.42;;
6787;SDS011;3431;47.966;10.268;2022-11-25T01:46:18;2.38;;;1.88;;
6787;SDS011;3431;47.966;10.268;2022-11-25T01:46:52;2.33;;;1.77;;
6787;SDS011;3431;47.966;10.268;2022-11-25T01:47:17;1.90;;;1.70;;
6787;SDS011;3431;47.966;10.268;2022-11-25T01:47:44;1.85;;;1.60;;
6787;SDS011;3431;47.966;10.268;2022-11-25T01:48:09;2.13;;;1.83;;
6787;SDS011;3431;47.966;10.268;2022-11-25T01:48:37;2.35;;;1.50;;
6787;SDS011;3431;47.966;10.268;2022-11-25T01:49:02;2.15;;;1.70;;
6787;SDS011;3431;47.966;10.268;2022-11-25T01:49:31;2.15;;;1.92;;
6787;SDS011;3431;47.966;10.268;2022-11-25T01:49:59;2.60;;;1.75;;
6787;SDS011;3431;47.966;10.268;2022-11-25T01:50:24;1.90;;;1.70;;
6787;SDS011;3431;47.966;10.268;2022-11-25T01:50:47;1.90;;;1.70;;
6787;SDS011;3431;47.966;10.268;2022-11-25T01:51:14;1.77;;;1.60;;
6787;SDS011;3431;47.966;10.268;2022-11-25T01:51:43;1.50;;;1.40;;
6787;SDS011;3431;47.966;10.268;2022-11-25T01:52:11;1.05;;;1.05;;
6787;SDS011;3431;47.966;10.268;2022-11-25T01:52:35;1.33;;;1.23;;
6787;SDS011;3431;47.966;10.268;2022-11-25T01:53:02;1.73;;;1.43;;
6787;SDS011;3431;47.966;10.268;2022-11-25T01:53:30;1.45;;;1.35;;
6787;SDS011;3431;47.966;10.268;2022-11-25T01:53:53;1.35;;;1.25;;
6787;SDS011;3431;47.966;10.268;2022-11-25T01:54:18;1.25;;;1.15;;
6787;SDS011;3431;47.966;10.268;2022-11-25T01:54:43;1.20;;;1.10;;
6787;SDS011;3431;47.966;10.268;2022-11-25T01:55:15;1.48;;;1.20;;
6787;SDS011;3431;47.966;10.268;2022-11-25T01:55:40;1.30;;;1.20;;
6787;SDS011;3431;47.966;10.268;2022-11-25T01:56:04;1.27;;;1.10;;
6787;SDS011;3431;47.966;10.268;2022-11-25T01:56:28;1.60;;;1.17;;
6787;SDS011;3431;47.966;10.268;2022-11-25T01:56:54;1.40;;;1.30;;
6787;SDS011;3431;47.966;10.268;2022-11-25T01:57:20;0.98;;;0.98;;
6787;SDS011;3431;47.966;10.268;2022-11-25T01:57:47;1.20;;;1.10;;
6787;SDS011;3431;47.966;10.268;2022-11-25T01:58:13;1.48;;;1.38;;
6787;SDS011;3431;47.966;10.268;2022-11-25T01:58:38;1.10;;;1.00;;
6787;SDS011;3431;47.966;10.268;2022-11-25T01:59:03;1.20;;;1.00;;
6787;SDS011;3431;47.966;10.268;2022-11-25T01:59:27;1.30;;;1.20;;
6787;SDS011;3431;47.966;10.268;2022-11-25T01:59:52;1.20;;;1.10;;
6787;SDS011;3431;47.966;10.268;2022-11-25T02:00:17;1.15;;;1.05;;
6787;SDS011;3431;47.966;10.268;2022-11-25T02:00:41;1.05;;;1.05;;
6787;SDS011;3431;47.966;10.268;2022-11-25T02:01:10;1.48;;;1.00;;
6787;SDS011;3431;47.966;10.268;2022-11-25T02:01:32;2.40;;;0.90;;
6787;SDS011;3431;47.966;10.268;2022-11-25T02:01:55;1.92;;;0.95;;
6787;SDS011;3431;47.966;10.268;2022-11-25T02:02:18;1.10;;;1.00;;
6787;SDS011;3431;47.966;10.268;2022-11-25T02:02:40;1.20;;;1.10;;
6787;SDS011;3431;47.966;10.268;2022-11-25T02:03:04;1.23;;;1.13;;
6787;SDS011;3431;47.966;10.268;2022-11-25T02:03:28;1.20;;;1.10;;
6787;SDS011;3431;47.966;10.268;2022-11-25T02:03:53;1.20;;;1.10;;
6787;SDS011;3431;47.966;10.268;2022-11-25T02:04:16;0.90;;;0.90;;
6787;SDS011;3431;47.966;10.268;2022-11-25T02:04:41;1.33;;;1.02;;
6787;SDS011;3431;47.966;10.268;2022-11-25T02:05:06;1.40;;;1.25;;
6787;SDS011;3431;47.966;10.268;2022-11-25T02:05:32;2.25;;;1.20;;
6787;SDS011;3431;47.966;10.268;2022-11-25T02:06:02;1.10;;;1.00;;
6787;SDS011;3431;47.966;10.268;2022-11-25T02:06:29;2.08;;;1.10;;
6787;SDS011;3431;47.966;10.268;2022-11-25T02:06:56;1.60;;;1.10;;
6787;SDS011;3431;47.966;10.268;2022-11-25T02:07:24;1.38;;;1.27;;
6787;SDS011;3431;47.966;10.268;2022-11-25T02:07:51;1.23;;;1.20;;
6787;SDS011;3431;47.966;10.268;2022-11-25T02:08:14;1.50;;;1.40;;
6787;SDS011;3431;47.966;10.268;2022-11-25T02:08:36;1.50;;;1.40;;
6787;SDS011;3431;47.966;10.268;2022-11-25T02:09:00;1.30;;;1.20;;
6787;SDS011;3431;47.966;10.268;2022-11-25T02:09:25;0.90;;;0.90;;
6787;SDS011;3431;47.966;10.268;2022-11-25T02:09:47;1.10;;;1.10;;
6787;SDS011;3431;47.966;10.268;2022-11-25T02:10:13;1.15;;;1.15;;
6787;SDS011;3431;47.966;10.268;2022-11-25T02:10:37;1.08;;;1.08;;
6787;SDS011;3431;47.966;10.268;2022-11-25T02:11:00;1.00;;;1.00;;
6787;SDS011;3431;47.966;10.268;2022-11-25T02:11:24;1.10;;;1.00;;
6787;SDS011;3431;47.966;10.268;2022-11-25T02:11:48;1.10;;;1.00;;
6787;SDS011;3431;47.966;10.268;2022-11-25T02:12:12;1.08;;;0.98;;
6787;SDS011;3431;47.966;10.268;2022-11-25T02:12:37;1.02;;;1.02;;
6787;SDS011;3431;47.966;10.268;2022-11-25T02:13:00;0.90;;;0.90;;
6787;SDS011;3431;47.966;10.268;2022-11-25T02:13:23;1.10;;;1.10;;
6787;SDS011;3431;47.966;10.268;2022-11-25T02:13:45;0.88;;;0.88;;
6787;SDS011;3431;47.966;10.268;2022-11-25T02:14:11;1.10;;;0.90;;
6787;SDS011;3431;47.966;10.268;2022-11-25T02:14:35;0.90;;;0.90;;
6787;SDS011;3431;47.966;10.268;2022-11-25T02:14:57;0.90;;;0.90;;
6787;SDS011;3431;47.966;10.268;2022-11-25T02:15:20;1.55;;;0.93;;
6787;SDS011;3431;47.966;10.268;2022-11-25T02:15:42;1.48;;;1.05;;
6787;SDS011;3431;47.966;10.268;2022-11-25T02:16:05;1.10;;;1.10;;
6787;SDS011;3431;47.966;10.268;2022-11-25T02:16:26;1.10;;;1.00;;
6787;SDS011;3431;47.966;10.268;2022-11-25T02:16:48;1.10;;;1.10;;
6787;SDS011;3431;47.966;10.268;2022-11-25T02:17:09;0.98;;;0.98;;
6787;SDS011;3431;47.966;10.268;2022-11-25T02:17:31;0.80;;;0.80;;
6787;SDS011;3431;47.966;10.268;2022-11-25T02:17:54;1.20;;;0.90;;
6787;SDS011;3431;47.966;10.268;2022-11-25T02:18:17;1.00;;;1.00;;
6787;SDS011;3431;47.966;10.268;2022-11-25T02:18:39;0.90;;;0.90;;
6787;SDS011;3431;47.966;10.268;2022-11-25T02:19:01;0.93;;;0.93;;
6787;SDS011;3431;47.966;10.268;2022-11-25T02:19:24;0.82;;;0.82;;
6787;SDS011;3431;47.966;10.268;2022-11-25T02:19:57;0.70;;;0.70;;
6787;SDS011;3431;47.966;10.268;2022-11-25T02:20:24;0.70;;;0.70;;
6787;SDS011;3431;47.966;10.268;2022-11-25T02:20:45;1.02;;;1.00;;
6787;SDS011;3431;47.966;10.268;2022-11-25T02:21:07;0.80;;;0.80;;
6787;SDS011;3431;47.966;10.268;2022-11-25T02:21:30;0.80;;;0.80;;
6787;SDS011;3431;47.966;10.268;2022-11-25T02:22:01;0.80;;;0.80;;
6787;SDS011;3431;47.966;10.268;2022-11-25T02:22:29;0.90;;;0.90;;
6787;SDS011;3431;47.966;10.268;2022-11-25T02:23:02;1.20;;;1.10;;
6787;SDS011;3431;47.966;10.268;2022-11-25T02:23:38;1.30;;;1.08;;
6787;SDS011;3431;47.966;10.268;2022-11-25T02:24:07;0.80;;;0.80;;